Anthony, West Virginia
Current Conditions -  °F | °C
As of 1:15 AM on Tuesday 21 Oct 2014 (Local Time) from KLWB Reporting Station
Overcast Overcast  
Wind Chill: 50°   Ceiling: 2800
Heat Index: 50°   Visibility: 10mi
Dew Point: 47°   Wind: 0mph
Humidity: 89%   Direction: NA
Pressure: 29.95"   Gusts: NA
Location:  38.0307°N, 80.4756°W
Report Text: KLWB 210515Z AUTO 00000KT 10SM BKN028 BKN038 OVC050 10/08 A2995 RMK AO2 LTG DSNT W T01010084
Loading
Personal Weather Stations






























Interactive Weather Map New forecast layout! Learn more

10-Day Weather Forecast

Advertisements
Track Severe Weather on mobile